Time;durP1;ratioP1;P1;durP2;ratioP2;P2;SDS_P1;SDS_P2;PMS_P1;PMS_P2;Temp;Humidity;BMP_temperature;BMP_pressure;BME280_temperature;BME280_humidity;BME280_pressure;Samples;Min_cycle;Max_cycle;Signal;HPM_P1;HPM_P2
2021/07/30 00:01:57;;;;;;;4.78;4.38;;;20.80;68.10;;;;;;5051042;28;20237;-88
2021/07/30 00:04:23;;;;;;;5.35;4.55;;;20.80;68.00;;;;;;5053123;28;20207;-88
2021/07/30 00:06:48;;;;;;;5.75;4.00;;;20.80;67.70;;;;;;5039027;28;20215;-89
2021/07/30 00:09:14;;;;;;;4.47;4.13;;;20.80;68.50;;;;;;5055679;28;20223;-89
2021/07/30 00:11:41;;;;;;;4.60;4.20;;;20.80;68.20;;;;;;5053707;28;20229;-89
2021/07/30 00:14:07;;;;;;;4.90;4.50;;;20.80;68.80;;;;;;5046514;28;20274;-88
2021/07/30 00:16:34;;;;;;;4.70;4.30;;;20.80;68.60;;;;;;5054320;28;20192;-89
2021/07/30 00:19:00;;;;;;;5.00;4.53;;;20.70;68.10;;;;;;5053006;28;20207;-89
2021/07/30 00:21:26;;;;;;;5.10;4.55;;;20.70;68.60;;;;;;5053968;28;20565;-88
2021/07/30 00:23:51;;;;;;;4.68;4.28;;;20.70;68.40;;;;;;5037988;28;20187;-89
2021/07/30 00:26:17;;;;;;;4.72;4.32;;;20.70;68.40;;;;;;5054729;28;20198;-89
2021/07/30 00:28:43;;;;;;;4.93;4.43;;;20.60;68.50;;;;;;5051490;28;20210;-89
2021/07/30 00:31:08;;;;;;;5.50;4.30;;;20.60;68.30;;;;;;5047783;28;20307;-88
2021/07/30 00:33:35;;;;;;;4.25;3.95;;;20.60;68.70;;;;;;5039409;28;20205;-88
2021/07/30 00:36:01;;;;;;;4.78;4.25;;;20.60;68.70;;;;;;5048907;28;20196;-89
2021/07/30 00:38:27;;;;;;;4.68;4.18;;;20.50;68.90;;;;;;5054646;28;20234;-88
2021/07/30 00:40:53;;;;;;;4.80;3.80;;;20.50;68.90;;;;;;5035503;28;20734;-88
2021/07/30 00:43:18;;;;;;;4.35;3.97;;;20.50;68.90;;;;;;5053083;28;20250;-89
2021/07/30 00:45:45;;;;;;;6.82;4.63;;;20.60;68.70;;;;;;5053054;28;20657;-89
2021/07/30 00:48:11;;;;;;;4.65;4.25;;;20.50;68.90;;;;;;5037117;28;20219;-89
2021/07/30 00:50:38;;;;;;;5.22;4.40;;;20.50;68.70;;;;;;5053635;28;20209;-89
2021/07/30 00:53:04;;;;;;;4.70;4.00;;;20.50;68.60;;;;;;5052662;28;20191;-88
2021/07/30 00:55:30;;;;;;;4.30;3.92;;;20.50;68.90;;;;;;5037636;28;20189;-88
2021/07/30 00:57:56;;;;;;;4.28;3.97;;;20.50;69.20;;;;;;5053701;28;20200;-88
2021/07/30 01:00:22;;;;;;;4.50;4.20;;;20.50;69.40;;;;;;5052273;28;20194;-89
2021/07/30 01:02:49;;;;;;;4.90;4.47;;;20.40;68.50;;;;;;5052836;28;20684;-89
2021/07/30 01:05:15;;;;;;;4.68;4.28;;;20.50;68.90;;;;;;5050919;28;20192;-89
2021/07/30 01:07:41;;;;;;;4.40;4.03;;;20.40;69.10;;;;;;5049708;28;20216;-89
2021/07/30 01:10:07;;;;;;;5.13;4.70;;;20.40;69.50;;;;;;5052776;28;20259;-88
2021/07/30 01:12:33;;;;;;;4.65;4.20;;;20.30;70.20;;;;;;5053979;28;20183;-88
2021/07/30 01:14:59;;;;;;;5.03;4.22;;;20.30;69.60;;;;;;5051110;28;20222;-89
2021/07/30 01:17:25;;;;;;;5.22;4.00;;;20.30;70.10;;;;;;5050592;28;20202;-89
2021/07/30 01:19:54;;;;;;;4.32;3.92;;;20.30;69.00;;;;;;5035596;28;20203;-89
2021/07/30 01:22:27;;;;;;;4.30;3.63;;;20.30;69.30;;;;;;5041426;28;20195;-88
2021/07/30 01:24:54;;;;;;;4.80;3.90;;;20.30;69.00;;;;;;5047802;28;20186;-88
2021/07/30 01:27:20;;;;;;;6.60;4.30;;;20.20;69.10;;;;;;5053297;28;20267;-89
2021/07/30 01:29:47;;;;;;;4.70;4.30;;;20.20;68.50;;;;;;5022110;28;20218;-89
2021/07/30 01:32:14;;;;;;;4.32;3.92;;;20.20;69.40;;;;;;5046660;28;20609;-88
2021/07/30 01:34:39;;;;;;;4.70;4.30;;;20.10;69.00;;;;;;5053698;28;20200;-88
2021/07/30 01:37:05;;;;;;;4.60;4.20;;;19.90;70.00;;;;;;5054405;28;20217;-89
2021/07/30 01:39:31;;;;;;;4.93;4.38;;;19.70;71.20;;;;;;5052305;28;20221;-88
2021/07/30 01:41:57;;;;;;;4.45;4.10;;;19.80;71.20;;;;;;5051280;28;20246;-89
2021/07/30 01:44:23;;;;;;;5.22;4.50;;;19.60;71.60;;;;;;5053731;28;20196;-88
2021/07/30 01:46:48;;;;;;;5.07;4.68;;;19.30;72.70;;;;;;5042442;28;20188;-89
2021/07/30 01:49:14;;;;;;;5.97;5.00;;;19.00;74.00;;;;;;5027228;28;20250;-89
2021/07/30 01:51:40;;;;;;;4.60;4.22;;;18.90;74.50;;;;;;5035332;28;20741;-88
2021/07/30 01:54:06;;;;;;;4.53;4.22;;;19.00;74.20;;;;;;5035851;28;20199;-88
2021/07/30 01:56:33;;;;;;;4.53;4.05;;;19.10;73.80;;;;;;5034611;28;20592;-88
2021/07/30 01:58:58;;;;;;;5.25;4.43;;;19.20;73.10;;;;;;5052558;28;20296;-88
2021/07/30 02:01:24;;;;;;;5.10;4.57;;;19.40;72.40;;;;;;5019260;28;20185;-88
2021/07/30 02:03:50;;;;;;;5.80;4.63;;;19.40;72.00;;;;;;5052588;28;20230;-88
2021/07/30 02:06:16;;;;;;;4.68;4.28;;;19.50;72.00;;;;;;5050161;28;20242;-88
2021/07/30 02:08:43;;;;;;;4.82;4.43;;;19.50;71.90;;;;;;5053975;28;20226;-88
2021/07/30 02:11:13;;;;;;;4.95;3.88;;;19.60;71.20;;;;;;5038736;28;20283;-88
2021/07/30 02:16:24;;;;;;;5.13;4.70;;;19.70;71.00;;;;;;5042320;28;20202;-89
2021/07/30 02:18:51;;;;;;;5.18;4.18;;;19.60;70.10;;;;;;5053565;28;20204;-88
2021/07/30 02:21:17;;;;;;;4.55;4.15;;;19.40;71.30;;;;;;5053204;28;20188;-88
2021/07/30 02:23:44;;;;;;;5.78;4.30;;;19.20;72.20;;;;;;5053102;28;20184;-89
2021/07/30 02:26:10;;;;;;;4.45;3.90;;;19.00;72.60;;;;;;5055238;28;20206;-89
2021/07/30 02:28:36;;;;;;;5.05;4.15;;;19.10;72.50;;;;;;5058077;28;20220;-89
2021/07/30 02:31:01;;;;;;;4.60;4.20;;;19.10;72.60;;;;;;5056004;28;20208;-89
2021/07/30 02:33:27;;;;;;;4.55;4.22;;;19.10;72.70;;;;;;5055750;28;20238;-88
2021/07/30 02:35:53;;;;;;;3.97;3.67;;;19.20;72.70;;;;;;5055660;28;20184;-89
2021/07/30 02:38:19;;;;;;;4.05;3.75;;;19.30;72.40;;;;;;5054853;28;20223;-88
2021/07/30 02:40:44;;;;;;;4.38;3.97;;;19.30;72.00;;;;;;5054763;28;20192;-89
2021/07/30 02:43:10;;;;;;;5.10;4.60;;;19.30;72.40;;;;;;5058400;28;20240;-88
2021/07/30 02:45:36;;;;;;;4.47;4.18;;;19.30;72.20;;;;;;5047701;28;20573;-89
2021/07/30 02:48:02;;;;;;;4.95;4.47;;;19.30;71.90;;;;;;5046459;28;20704;-89
2021/07/30 02:50:27;;;;;;;4.53;4.13;;;19.30;72.30;;;;;;5057426;28;20255;-89
2021/07/30 02:52:53;;;;;;;4.85;4.20;;;19.30;72.50;;;;;;5044959;28;20188;-89
2021/07/30 02:55:19;;;;;;;5.22;4.00;;;19.30;72.40;;;;;;5047568;28;20184;-89
2021/07/30 02:57:45;;;;;;;4.68;4.38;;;19.30;72.50;;;;;;5054995;28;20218;-89
2021/07/30 03:00:11;;;;;;;4.55;4.07;;;19.20;71.80;;;;;;5037679;28;20199;-88
2021/07/30 03:02:37;;;;;;;4.53;4.03;;;19.30;71.70;;;;;;5052926;28;20815;-89
2021/07/30 03:05:04;;;;;;;4.40;4.10;;;19.00;72.70;;;;;;5054247;28;20219;-88
2021/07/30 03:07:29;;;;;;;5.15;4.05;;;18.80;74.00;;;;;;5056043;28;20235;-88
2021/07/30 03:09:55;;;;;;;7.22;4.32;;;18.80;74.80;;;;;;5054233;28;20716;-89
2021/07/30 03:12:21;;;;;;;4.38;4.07;;;18.80;74.50;;;;;;5053562;28;20271;-89
2021/07/30 03:14:47;;;;;;;4.63;4.30;;;18.80;73.60;;;;;;5039878;28;20237;-89
2021/07/30 03:17:12;;;;;;;4.25;3.95;;;18.90;74.10;;;;;;5055386;28;20208;-89
2021/07/30 03:19:38;;;;;;;7.53;4.15;;;19.00;73.70;;;;;;5053349;28;20192;-89
2021/07/30 03:22:04;;;;;;;6.90;4.15;;;19.00;73.70;;;;;;5055960;28;20192;-88
2021/07/30 03:24:30;;;;;;;6.07;4.20;;;19.00;73.40;;;;;;5058661;28;20207;-88
2021/07/30 03:26:56;;;;;;;5.45;4.53;;;19.10;73.10;;;;;;5054757;28;20203;-87
2021/07/30 03:29:21;;;;;;;4.68;4.15;;;19.10;73.00;;;;;;5045043;28;20216;-89
2021/07/30 03:31:48;;;;;;;5.07;4.53;;;19.20;73.30;;;;;;5060539;28;20188;-88
2021/07/30 03:34:15;;;;;;;5.47;4.15;;;19.20;72.90;;;;;;5051320;28;20184;-89
2021/07/30 03:36:41;;;;;;;6.80;4.38;;;19.20;72.90;;;;;;5049455;28;20238;-88
2021/07/30 03:39:08;;;;;;;4.47;3.95;;;19.20;72.90;;;;;;5041453;28;20243;-88
2021/07/30 03:41:35;;;;;;;4.10;3.80;;;19.20;73.00;;;;;;5059862;28;20682;-89
2021/07/30 03:44:00;;;;;;;4.97;4.47;;;19.30;73.80;;;;;;5034602;28;20197;-88
2021/07/30 03:46:26;;;;;;;4.65;4.00;;;19.30;72.70;;;;;;5045230;28;20196;-89
2021/07/30 03:48:52;;;;;;;4.88;4.40;;;19.20;72.60;;;;;;5041562;28;20208;-88
2021/07/30 03:51:18;;;;;;;7.05;4.20;;;19.30;72.70;;;;;;5055274;28;20196;-88
2021/07/30 03:53:43;;;;;;;4.20;3.70;;;19.20;72.80;;;;;;5057497;28;20231;-88
2021/07/30 03:56:16;;;;;;;4.40;4.00;;;19.20;73.10;;;;;;5040913;28;20236;-88
2021/07/30 03:58:43;;;;;;;5.38;4.50;;;19.20;72.90;;;;;;5036492;28;20210;-89
2021/07/30 04:01:11;;;;;;;8.05;4.63;;;19.00;73.20;;;;;;5051016;28;20881;-88
2021/07/30 04:03:37;;;;;;;4.85;4.20;;;19.00;73.00;;;;;;5058463;28;20219;-89
2021/07/30 04:06:04;;;;;;;5.10;4.60;;;19.00;73.40;;;;;;5043638;28;20621;-88
2021/07/30 04:08:32;;;;;;;4.30;4.00;;;19.00;73.30;;;;;;5050653;28;20239;-89
2021/07/30 04:10:58;;;;;;;4.60;4.20;;;19.10;73.20;;;;;;5042462;28;20286;-89
2021/07/30 04:13:24;;;;;;;4.78;4.30;;;19.10;73.40;;;;;;5058077;28;20199;-89
2021/07/30 04:15:50;;;;;;;6.70;4.25;;;19.10;73.10;;;;;;5053532;28;20181;-89
2021/07/30 04:18:16;;;;;;;6.30;4.10;;;19.10;73.00;;;;;;5055678;28;20212;-89
2021/07/30 04:20:41;;;;;;;4.80;3.83;;;19.10;72.70;;;;;;5057649;28;20208;-89
2021/07/30 04:23:08;;;;;;;10.80;4.38;;;19.00;72.60;;;;;;5055806;28;20192;-89
2021/07/30 04:25:33;;;;;;;5.25;4.10;;;19.00;73.30;;;;;;5054957;28;20189;-89
2021/07/30 04:27:59;;;;;;;5.43;4.18;;;19.00;73.00;;;;;;5057050;28;20208;-88
2021/07/30 04:30:25;;;;;;;4.57;4.18;;;19.00;73.00;;;;;;5054335;28;20224;-89
2021/07/30 04:32:51;;;;;;;4.85;4.32;;;19.00;73.00;;;;;;5038309;28;20584;-89
2021/07/30 04:35:17;;;;;;;4.88;4.47;;;19.00;73.00;;;;;;5049417;28;20185;-88
2021/07/30 04:37:43;;;;;;;5.63;4.40;;;19.00;73.10;;;;;;5041463;28;20270;-89
2021/07/30 04:40:09;;;;;;;4.97;4.35;;;19.00;72.90;;;;;;5056602;28;20660;-89
2021/07/30 04:42:35;;;;;;;4.63;4.30;;;19.00;73.30;;;;;;5055012;28;20189;-89
2021/07/30 04:45:00;;;;;;;5.88;4.50;;;19.00;73.40;;;;;;5047633;28;21023;-89
2021/07/30 04:47:26;;;;;;;5.13;4.72;;;19.00;73.30;;;;;;5037702;28;20199;-89
2021/07/30 04:49:52;;;;;;;4.68;4.28;;;18.90;73.70;;;;;;5051899;28;20289;-89
2021/07/30 04:52:17;;;;;;;4.82;4.43;;;18.80;73.90;;;;;;5045393;28;20189;-89
2021/07/30 04:54:43;;;;;;;4.57;4.00;;;18.70;74.60;;;;;;5040954;28;20195;-89
2021/07/30 04:57:09;;;;;;;5.13;4.03;;;18.80;74.50;;;;;;5034520;28;20188;-89
2021/07/30 04:59:35;;;;;;;6.43;4.38;;;18.80;74.40;;;;;;5049335;28;20254;-89
2021/07/30 05:02:01;;;;;;;5.85;3.90;;;18.70;74.30;;;;;;5053623;28;20260;-89
2021/07/30 05:04:27;;;;;;;4.43;4.13;;;18.60;74.90;;;;;;5032317;28;20264;-89
2021/07/30 05:06:53;;;;;;;10.60;4.35;;;18.60;74.80;;;;;;5051584;28;20238;-88
2021/07/30 05:09:19;;;;;;;8.35;4.35;;;18.70;74.70;;;;;;5053568;28;20307;-89
2021/07/30 05:11:45;;;;;;;4.13;3.72;;;18.80;74.00;;;;;;5054020;28;20189;-89
2021/07/30 05:14:10;;;;;;;4.35;3.83;;;18.90;73.90;;;;;;5036293;28;20196;-89
2021/07/30 05:16:36;;;;;;;4.28;3.95;;;18.80;73.60;;;;;;5041878;28;20271;-89
2021/07/30 05:19:02;;;;;;;4.55;4.15;;;18.90;73.50;;;;;;5026551;28;20270;-89
2021/07/30 05:21:28;;;;;;;5.15;4.10;;;18.90;73.20;;;;;;5051703;28;20606;-89
2021/07/30 05:23:54;;;;;;;5.10;4.65;;;19.10;72.70;;;;;;5043571;28;20216;-89
2021/07/30 05:26:20;;;;;;;5.13;4.05;;;19.00;72.70;;;;;;5049979;28;20231;-89
2021/07/30 05:28:45;;;;;;;4.50;4.10;;;19.00;73.40;;;;;;5049045;28;20296;-87
2021/07/30 05:31:16;;;;;;;4.63;4.20;;;18.90;73.00;;;;;;5033950;28;20304;-90
2021/07/30 05:33:42;;;;;;;5.40;4.68;;;19.00;72.40;;;;;;5042737;28;20220;-89
2021/07/30 05:36:16;;;;;;;5.90;4.20;;;19.00;73.10;;;;;;5045375;28;20184;-87
2021/07/30 05:38:42;;;;;;;4.38;3.78;;;19.10;73.10;;;;;;5055338;28;20242;-89
2021/07/30 05:41:11;;;;;;;4.32;3.92;;;19.10;72.90;;;;;;5040948;28;20669;-89
2021/07/30 05:43:41;;;;;;;6.72;4.75;;;19.10;72.70;;;;;;5034044;28;20188;-90
2021/07/30 05:46:07;;;;;;;5.35;4.28;;;19.20;73.00;;;;;;5057341;28;20216;-89
2021/07/30 05:48:33;;;;;;;4.60;3.85;;;19.20;73.70;;;;;;5070086;28;20279;-90
2021/07/30 05:50:59;;;;;;;4.70;4.30;;;19.20;73.60;;;;;;5057131;28;20399;-90
2021/07/30 05:53:25;;;;;;;5.97;4.40;;;19.20;74.00;;;;;;5055285;28;20557;-90
2021/07/30 05:55:51;;;;;;;4.57;4.13;;;19.20;74.00;;;;;;5028000;28;20193;-90
2021/07/30 05:58:17;;;;;;;4.97;4.53;;;19.20;74.20;;;;;;5056054;28;20250;-87
2021/07/30 06:00:42;;;;;;;4.38;4.05;;;19.30;73.60;;;;;;5044761;28;20279;-87
2021/07/30 06:03:08;;;;;;;5.38;4.95;;;19.30;74.10;;;;;;5046128;28;20211;-87
2021/07/30 06:05:34;;;;;;;7.18;4.95;;;19.30;73.40;;;;;;5055344;28;20802;-85
2021/07/30 06:08:04;;;;;;;5.10;4.70;;;19.00;75.40;;;;;;5054841;28;20274;-88
2021/07/30 06:10:30;;;;;;;6.03;5.43;;;18.90;75.50;;;;;;5055451;28;20211;-89
2021/07/30 06:12:55;;;;;;;6.15;5.38;;;18.90;76.20;;;;;;5052783;28;20184;-90
2021/07/30 06:15:23;;;;;;;7.72;4.85;;;18.60;76.40;;;;;;5041597;28;20204;-90
2021/07/30 06:17:52;;;;;;;5.63;5.10;;;18.60;76.00;;;;;;5051248;28;20204;-89
2021/07/30 06:20:19;;;;;;;6.93;5.20;;;18.40;76.40;;;;;;5038502;28;20188;-91
2021/07/30 06:22:45;;;;;;;7.20;5.25;;;18.20;76.50;;;;;;5053444;28;20213;-87
2021/07/30 06:25:12;;;;;;;7.07;5.20;;;18.30;76.40;;;;;;5049528;28;20218;-88
2021/07/30 06:27:38;;;;;;;6.00;5.40;;;18.40;76.70;;;;;;5051636;28;20334;-90
2021/07/30 06:30:06;;;;;;;5.97;5.35;;;18.50;76.80;;;;;;5030996;28;20232;-90
2021/07/30 06:32:32;;;;;;;6.10;5.60;;;18.40;76.60;;;;;;5046588;28;20225;-90
2021/07/30 06:34:58;;;;;;;6.63;5.95;;;18.70;75.70;;;;;;5029332;28;20191;-89
2021/07/30 06:37:24;;;;;;;6.38;5.32;;;18.70;75.80;;;;;;5048421;28;20187;-90
2021/07/30 06:39:49;;;;;;;5.28;4.78;;;18.90;74.80;;;;;;5049070;28;20253;-87
2021/07/30 06:42:15;;;;;;;6.22;4.97;;;19.00;74.30;;;;;;5049939;28;20207;-88
2021/07/30 06:44:44;;;;;;;8.57;5.05;;;19.20;73.80;;;;;;5017694;28;20562;-87
2021/07/30 06:47:10;;;;;;;5.85;5.25;;;19.30;75.00;;;;;;5050661;28;20238;-88
2021/07/30 06:49:39;;;;;;;5.63;5.10;;;19.50;73.80;;;;;;5051015;28;20695;-87
2021/07/30 06:52:07;;;;;;;6.05;5.55;;;19.60;71.90;;;;;;5048870;28;20211;-86
2021/07/30 06:54:33;;;;;;;6.18;5.57;;;19.70;71.90;;;;;;5054566;28;20185;-88
2021/07/30 06:57:02;;;;;;;6.20;5.60;;;19.80;71.90;;;;;;5035918;28;20649;-86
2021/07/30 06:59:28;;;;;;;5.82;5.43;;;19.70;72.10;;;;;;5043195;28;20767;-87
2021/07/30 07:01:54;;;;;;;6.30;5.70;;;19.70;71.50;;;;;;5046259;28;20200;-88
2021/07/30 07:04:20;;;;;;;6.28;5.32;;;19.70;71.40;;;;;;5036949;28;20181;-89
2021/07/30 07:06:47;;;;;;;5.63;5.22;;;19.70;72.20;;;;;;5048599;28;20266;-90
2021/07/30 07:09:13;;;;;;;6.47;4.63;;;19.80;71.80;;;;;;5047267;28;20803;-90
2021/07/30 07:11:39;;;;;;;5.97;5.47;;;20.00;72.40;;;;;;5035195;28;20240;-88
2021/07/30 07:14:05;;;;;;;5.85;5.35;;;20.00;72.00;;;;;;5050090;28;20277;-89
2021/07/30 07:16:31;;;;;;;7.75;5.40;;;20.10;71.10;;;;;;5035317;28;20201;-89
2021/07/30 07:18:56;;;;;;;7.28;4.93;;;20.10;70.20;;;;;;5056284;28;20206;-89
2021/07/30 07:21:22;;;;;;;5.63;5.07;;;20.00;70.20;;;;;;5033411;28;20204;-91
2021/07/30 07:23:49;;;;;;;5.65;5.15;;;20.10;70.70;;;;;;5050886;28;20188;-88
2021/07/30 07:26:15;;;;;;;5.30;4.80;;;20.20;71.60;;;;;;5050544;28;20238;-88
2021/07/30 07:28:41;;;;;;;10.57;5.45;;;20.30;70.80;;;;;;5055222;28;20642;-87
2021/07/30 07:31:07;;;;;;;5.97;5.00;;;20.30;69.70;;;;;;5042221;28;20301;-86
2021/07/30 07:33:33;;;;;;;5.25;4.70;;;20.30;71.10;;;;;;5038241;28;20227;-87
2021/07/30 07:35:59;;;;;;;5.53;4.90;;;20.40;69.90;;;;;;5047731;28;20175;-88
2021/07/30 07:38:24;;;;;;;5.53;4.63;;;20.50;69.60;;;;;;5026272;28;20274;-86
2021/07/30 07:40:50;;;;;;;5.55;4.65;;;20.50;68.10;;;;;;5040985;28;20205;-89
2021/07/30 07:43:16;;;;;;;7.10;4.70;;;20.70;67.50;;;;;;5042858;28;20196;-88
2021/07/30 07:45:42;;;;;;;5.78;5.25;;;20.80;66.70;;;;;;5046181;28;20656;-87
2021/07/30 07:48:08;;;;;;;6.32;5.43;;;20.60;69.40;;;;;;5046674;28;20684;-88
2021/07/30 07:50:34;;;;;;;5.78;5.28;;;20.80;68.30;;;;;;5042354;28;20234;-88
2021/07/30 07:52:59;;;;;;;5.78;5.07;;;20.90;66.10;;;;;;5035009;28;20214;-88
2021/07/30 07:55:25;;;;;;;6.03;5.53;;;21.00;65.90;;;;;;5033140;28;20196;-87
2021/07/30 07:57:51;;;;;;;5.72;5.22;;;21.10;65.00;;;;;;5041816;28;20240;-88
2021/07/30 08:00:17;;;;;;;6.00;5.50;;;21.10;66.40;;;;;;5038992;28;20197;-88
2021/07/30 08:02:43;;;;;;;5.55;5.00;;;21.20;64.40;;;;;;5057278;28;20190;-88
2021/07/30 08:05:09;;;;;;;5.60;5.10;;;21.10;67.50;;;;;;5054254;28;20279;-88
2021/07/30 08:07:35;;;;;;;6.15;5.50;;;21.10;65.80;;;;;;5056876;28;20233;-88
2021/07/30 08:10:00;;;;;;;5.40;4.65;;;21.30;65.90;;;;;;5060063;28;20205;-89
2021/07/30 08:12:26;;;;;;;5.10;4.70;;;21.50;61.80;;;;;;5057257;28;20203;-88
2021/07/30 08:14:52;;;;;;;5.07;4.68;;;21.50;62.90;;;;;;5057471;28;20254;-89
2021/07/30 08:17:18;;;;;;;5.05;4.65;;;21.60;63.10;;;;;;5051748;28;20201;-87
2021/07/30 08:19:47;;;;;;;7.95;5.43;;;21.80;62.20;;;;;;5040694;28;20196;-89
2021/07/30 08:22:13;;;;;;;7.15;5.00;;;21.80;62.50;;;;;;5017474;28;20198;-85
2021/07/30 08:24:39;;;;;;;5.97;4.30;;;21.90;61.50;;;;;;5053661;28;20645;-86
2021/07/30 08:27:06;;;;;;;5.93;5.15;;;22.10;61.00;;;;;;5036284;28;20194;-88
2021/07/30 08:29:32;;;;;;;5.90;5.40;;;22.10;62.00;;;;;;5057314;28;20206;-88
2021/07/30 08:31:58;;;;;;;5.57;5.07;;;22.10;61.80;;;;;;5051549;28;20180;-88
2021/07/30 08:34:24;;;;;;;6.78;6.05;;;22.20;62.80;;;;;;5054972;28;20210;-88
2021/07/30 08:36:50;;;;;;;6.93;6.10;;;22.30;62.20;;;;;;5051101;28;20215;-88
2021/07/30 08:39:16;;;;;;;5.88;5.15;;;22.20;63.70;;;;;;5046270;28;20201;-88
2021/07/30 08:41:44;;;;;;;5.60;5.10;;;22.20;62.90;;;;;;5055929;28;20180;-88
2021/07/30 08:44:10;;;;;;;5.18;4.68;;;22.30;62.70;;;;;;5055916;28;20188;-89
2021/07/30 08:46:36;;;;;;;7.60;5.75;;;22.40;62.80;;;;;;5037360;28;20194;-89
2021/07/30 08:49:02;;;;;;;6.32;5.72;;;22.50;63.30;;;;;;5058509;28;20236;-89
2021/07/30 08:51:32;;;;;;;5.90;5.40;;;22.80;61.80;;;;;;5056747;28;20618;-89
2021/07/30 08:53:58;;;;;;;5.97;5.47;;;23.00;62.30;;;;;;5042495;28;20318;-89
2021/07/30 08:56:24;;;;;;;6.18;5.60;;;23.30;61.90;;;;;;5049982;28;20675;-88
2021/07/30 08:58:50;;;;;;;6.13;5.63;;;23.50;61.50;;;;;;5037587;28;20208;-89
2021/07/30 09:01:16;;;;;;;6.07;5.47;;;23.80;59.70;;;;;;5025072;28;20216;-88
2021/07/30 09:03:44;;;;;;;6.68;6.10;;;23.70;61.10;;;;;;5047164;28;20192;-90
2021/07/30 09:06:21;;;;;;;7.53;6.05;;;23.80;59.80;;;;;;5026293;28;20204;-88
2021/07/30 09:09:02;;;;;;;6.50;6.00;;;24.00;59.80;;;;;;5047885;28;20207;-89
2021/07/30 09:11:33;;;;;;;7.85;5.72;;;24.20;58.60;;;;;;5049291;28;20219;-90
2021/07/30 09:14:23;;;;;;;6.38;5.88;;;24.50;58.40;;;;;;5045245;28;20172;-89
2021/07/30 09:16:53;;;;;;;6.60;5.95;;;24.20;58.50;;;;;;5049541;28;20188;-87
2021/07/30 09:19:19;;;;;;;6.15;5.30;;;24.40;56.10;;;;;;5051930;28;20213;-90
2021/07/30 09:21:46;;;;;;;6.40;5.80;;;24.50;57.80;;;;;;5046837;28;20660;-87
2021/07/30 09:24:15;;;;;;;5.90;5.50;;;24.50;55.20;;;;;;5050306;28;20196;-89
2021/07/30 09:26:46;;;;;;;6.45;5.75;;;24.50;55.80;;;;;;5050937;28;20190;-89
2021/07/30 09:29:38;;;;;;;5.65;5.18;;;24.30;56.70;;;;;;5049681;28;20213;-88
2021/07/30 09:32:15;;;;;;;6.30;5.43;;;24.50;56.90;;;;;;5049767;28;20283;-88
2021/07/30 09:34:51;;;;;;;9.27;6.25;;;24.30;57.70;;;;;;5050709;28;20183;-89
2021/07/30 09:37:23;;;;;;;6.93;5.60;;;24.60;58.50;;;;;;5046701;28;20192;-88
2021/07/30 09:39:51;;;;;;;5.78;5.38;;;24.90;56.50;;;;;;5042621;28;20185;-90
2021/07/30 09:42:18;;;;;;;6.22;5.32;;;24.80;54.90;;;;;;5045342;28;20246;-89
2021/07/30 09:44:53;;;;;;;6.93;5.43;;;25.00;54.30;;;;;;5046645;28;20196;-89
2021/07/30 09:47:24;;;;;;;6.13;5.35;;;25.20;54.80;;;;;;5032789;28;20188;-90
2021/07/30 09:49:59;;;;;;;6.03;5.53;;;25.40;53.70;;;;;;5048890;28;20250;-88
2021/07/30 09:52:32;;;;;;;5.90;5.40;;;25.60;54.40;;;;;;5047912;28;20768;-89
2021/07/30 09:55:00;;;;;;;5.78;5.28;;;25.90;52.50;;;;;;5042530;28;20841;-89
2021/07/30 09:57:30;;;;;;;6.45;5.15;;;25.80;50.50;;;;;;5051507;28;20215;-90
2021/07/30 09:59:58;;;;;;;5.88;5.38;;;25.80;52.20;;;;;;5048350;28;20185;-89
2021/07/30 10:02:27;;;;;;;5.45;4.95;;;25.70;53.20;;;;;;5054246;28;20530;-91
2021/07/30 10:04:53;;;;;;;6.07;5.47;;;25.90;50.10;;;;;;5050242;28;20369;-90
2021/07/30 10:07:21;;;;;;;5.60;5.10;;;25.90;51.50;;;;;;5055774;28;20199;-90
2021/07/30 10:09:52;;;;;;;5.55;5.15;;;25.90;51.30;;;;;;5051219;28;20314;-90
2021/07/30 10:12:19;;;;;;;10.55;5.82;;;26.00;50.50;;;;;;5031231;28;20189;-90
2021/07/30 10:14:45;;;;;;;5.78;5.38;;;25.70;52.70;;;;;;5029766;28;20180;-87
2021/07/30 10:17:15;;;;;;;5.93;5.35;;;25.90;52.90;;;;;;5046096;28;20185;-88
2021/07/30 10:19:42;;;;;;;6.47;5.97;;;26.10;50.00;;;;;;5045855;28;20187;-87
2021/07/30 10:22:09;;;;;;;7.13;5.57;;;26.20;50.90;;;;;;5050680;28;20281;-87
2021/07/30 10:24:43;;;;;;;6.07;5.57;;;26.30;49.80;;;;;;5047684;28;20281;-87
2021/07/30 10:27:11;;;;;;;5.75;5.25;;;26.40;49.80;;;;;;5042162;28;20541;-87
2021/07/30 10:30:00;;;;;;;6.53;5.93;;;26.30;49.60;;;;;;5043774;28;20238;-88
2021/07/30 10:32:49;;;;;;;6.68;6.07;;;26.50;49.40;;;;;;5048194;28;20189;-88
2021/07/30 10:35:25;;;;;;;6.25;5.68;;;26.50;49.80;;;;;;5043609;28;20552;-89
2021/07/30 10:38:08;;;;;;;5.80;5.30;;;26.30;50.40;;;;;;5044189;28;20200;-88
2021/07/30 10:40:33;;;;;;;6.28;5.75;;;26.40;50.90;;;;;;5045959;28;20188;-89
2021/07/30 10:43:15;;;;;;;6.57;5.55;;;26.40;52.40;;;;;;5046408;28;20556;-90
2021/07/30 10:45:42;;;;;;;6.35;5.78;;;26.10;52.70;;;;;;5044886;28;20197;-91
2021/07/30 10:48:29;;;;;;;6.70;6.20;;;26.40;51.10;;;;;;5047799;28;20302;-91
2021/07/30 10:51:01;;;;;;;6.80;5.97;;;26.50;51.60;;;;;;5048735;28;20211;-92
2021/07/30 10:53:39;;;;;;;5.65;5.22;;;27.00;50.20;;;;;;5059243;28;20189;-91
2021/07/30 10:56:07;;;;;;;6.30;5.70;;;27.20;49.40;;;;;;5051079;28;20192;-91
2021/07/30 10:58:44;;;;;;;6.20;5.72;;;27.50;50.30;;;;;;5055153;28;20227;-91
2021/07/30 11:01:11;;;;;;;6.68;6.15;;;27.30;50.00;;;;;;5052097;28;20277;-91
2021/07/30 11:03:49;;;;;;;6.35;5.85;;;27.40;49.00;;;;;;5054190;28;20193;-91
2021/07/30 11:06:26;;;;;;;6.63;6.13;;;27.40;50.50;;;;;;5056126;28;20214;-92
2021/07/30 11:11:52;;;;;;;6.55;5.95;;;27.30;49.40;;;;;;5052519;28;20747;-91
2021/07/30 11:14:22;;;;;;;6.22;5.70;;;27.60;48.70;;;;;;5059498;28;20192;-91
2021/07/30 11:17:02;;;;;;;6.05;5.45;;;27.30;48.20;;;;;;5056569;28;20210;-91
2021/07/30 11:19:30;;;;;;;6.57;6.00;;;27.30;49.00;;;;;;5057633;28;20235;-91
2021/07/30 11:22:01;;;;;;;6.53;5.95;;;27.30;49.40;;;;;;5055035;28;20667;-90
2021/07/30 11:24:27;;;;;;;7.20;6.03;;;27.10;49.20;;;;;;5036194;28;20192;-91
2021/07/30 11:26:53;;;;;;;8.63;6.55;;;27.10;51.20;;;;;;5059812;28;20225;-91
2021/07/30 11:29:21;;;;;;;6.57;5.97;;;27.10;49.40;;;;;;5052912;28;20216;-91
2021/07/30 11:32:04;;;;;;;6.45;5.95;;;27.20;51.50;;;;;;5051101;28;20177;-92
2021/07/30 11:34:38;;;;;;;6.40;5.90;;;27.60;48.70;;;;;;5052269;28;20242;-91
2021/07/30 11:37:06;;;;;;;7.18;6.47;;;27.70;48.30;;;;;;5061483;28;20196;-91
2021/07/30 11:39:49;;;;;;;7.05;6.50;;;27.80;48.40;;;;;;5060476;28;20216;-92
2021/07/30 11:42:21;;;;;;;6.90;6.30;;;27.80;48.70;;;;;;5054107;28;20204;-91
2021/07/30 11:44:52;;;;;;;6.80;5.90;;;27.90;47.40;;;;;;5060521;28;20182;-91
2021/07/30 11:47:20;;;;;;;6.97;6.30;;;27.80;48.20;;;;;;5056060;28;20192;-92
2021/07/30 11:49:48;;;;;;;7.20;6.43;;;27.80;50.70;;;;;;5054549;28;20217;-91
2021/07/30 11:52:22;;;;;;;6.45;5.90;;;27.80;47.90;;;;;;5052549;28;20200;-91
2021/07/30 11:54:48;;;;;;;6.72;6.13;;;27.90;48.50;;;;;;5057246;28;20179;-92
2021/07/30 11:57:29;;;;;;;6.68;6.13;;;28.20;49.50;;;;;;5060485;28;20264;-92
2021/07/30 11:59:57;;;;;;;7.10;6.53;;;28.40;48.10;;;;;;5037830;28;20215;-91
2021/07/30 12:02:28;;;;;;;6.53;5.93;;;28.40;47.90;;;;;;5032295;28;20208;-92
2021/07/30 12:04:56;;;;;;;7.57;6.88;;;28.60;47.60;;;;;;5043214;28;20184;-92
2021/07/30 12:07:30;;;;;;;7.57;6.68;;;28.50;46.60;;;;;;5023140;28;20223;-92
2021/07/30 12:09:59;;;;;;;7.22;6.55;;;28.60;46.40;;;;;;5053097;28;20217;-92
2021/07/30 12:12:30;;;;;;;7.22;6.47;;;29.00;48.60;;;;;;5053522;28;20189;-91
2021/07/30 12:14:58;;;;;;;7.00;6.40;;;29.50;46.60;;;;;;5061261;28;20208;-91
2021/07/30 12:17:30;;;;;;;8.95;7.28;;;29.70;43.30;;;;;;5044564;28;20292;-92
2021/07/30 12:20:03;;;;;;;7.03;6.53;;;29.70;45.10;;;;;;5060678;28;20234;-92
2021/07/30 12:23:02;;;;;;;7.65;7.03;;;30.10;44.10;;;;;;5056044;28;20203;-91
2021/07/30 12:25:34;;;;;;;7.13;6.53;;;30.40;43.30;;;;;;5042822;28;20208;-92
2021/07/30 12:28:09;;;;;;;6.95;6.40;;;29.80;43.50;;;;;;5055721;28;20625;-92
2021/07/30 12:30:35;;;;;;;7.38;6.78;;;29.80;44.10;;;;;;5051670;28;20217;-91
2021/07/30 12:33:01;;;;;;;7.15;6.45;;;29.90;45.60;;;;;;5057961;28;20275;-92
2021/07/30 12:35:31;;;;;;;7.35;6.80;;;30.00;43.80;;;;;;5057078;28;20193;-92
2021/07/30 12:38:01;;;;;;;7.25;6.65;;;30.20;42.30;;;;;;5049820;28;20291;-92
2021/07/30 12:40:26;;;;;;;7.50;6.82;;;30.70;41.70;;;;;;5053997;28;20193;-92
2021/07/30 12:43:08;;;;;;;6.95;6.45;;;30.00;43.40;;;;;;5048479;28;20295;-92
2021/07/30 12:46:00;;;;;;;7.25;6.75;;;30.00;42.40;;;;;;5051558;28;20222;-91
2021/07/30 12:48:26;;;;;;;7.32;6.63;;;30.20;41.70;;;;;;5049852;28;20217;-92
2021/07/30 12:50:51;;;;;;;7.30;6.60;;;30.40;41.70;;;;;;5049502;28;20216;-92
2021/07/30 12:53:24;;;;;;;7.80;6.97;;;30.60;41.80;;;;;;5062213;28;20185;-91
2021/07/30 12:56:09;;;;;;;7.50;6.93;;;30.90;39.80;;;;;;5056222;28;20196;-91